createdAt,value
2019-05-14T00:02:02.847Z,15.40
2019-05-14T00:04:32.580Z,11.03
2019-05-14T00:07:03.320Z,13.83
2019-05-14T00:09:33.818Z,12.53
2019-05-14T00:12:04.490Z,13.33
2019-05-14T00:14:39.594Z,15.23
2019-05-14T00:17:07.177Z,11.90
2019-05-14T00:19:38.139Z,14.93
2019-05-14T00:22:08.657Z,10.33
2019-05-14T00:24:41.663Z,10.30
2019-05-14T00:27:12.108Z,11.97
2019-05-14T00:29:44.032Z,9.47
2019-05-14T00:32:14.666Z,11.37
2019-05-14T00:34:45.282Z,11.67
2019-05-14T00:37:15.683Z,12.17
2019-05-14T00:39:46.236Z,9.77
2019-05-14T00:42:16.701Z,10.97
2019-05-14T00:44:54.318Z,9.07
2019-05-14T00:47:21.529Z,6.67
2019-05-14T00:49:51.936Z,11.90
2019-05-14T00:52:22.674Z,7.93
2019-05-14T00:54:53.218Z,10.13
2019-05-14T00:57:23.757Z,11.03
2019-05-14T00:59:54.351Z,9.17
2019-05-14T01:02:24.797Z,8.07
2019-05-14T01:04:55.427Z,11.40
2019-05-14T01:07:26.115Z,9.70
2019-05-14T01:09:56.686Z,10.37
2019-05-14T01:12:27.507Z,9.97
2019-05-14T01:15:09.548Z,10.60
2019-05-14T01:17:31.466Z,10.10
2019-05-14T01:20:03.150Z,8.07
2019-05-14T01:22:36.633Z,10.93
2019-05-14T01:25:07.273Z,10.93
2019-05-14T01:27:37.839Z,7.80
2019-05-14T01:30:08.733Z,8.67
2019-05-14T01:32:41.845Z,11.33
2019-05-14T01:35:12.210Z,9.47
2019-05-14T01:37:42.951Z,9.20
2019-05-14T01:40:13.687Z,10.37
2019-05-14T01:42:44.142Z,8.07
2019-05-14T01:45:26.955Z,8.90
2019-05-14T01:47:48.002Z,12.60
2019-05-14T01:50:18.638Z,10.80
2019-05-14T01:52:49.053Z,11.27
2019-05-14T01:55:21.778Z,9.57
2019-05-14T01:57:51.940Z,12.80
2019-05-14T02:00:23.030Z,12.57
2019-05-14T02:02:53.604Z,13.03
2019-05-14T02:05:25.700Z,15.17
2019-05-14T02:07:57.315Z,11.80
2019-05-14T02:10:27.967Z,10.60
2019-05-14T02:12:58.593Z,11.53
2019-05-14T02:15:37.178Z,8.80
2019-05-14T02:18:02.344Z,14.67
2019-05-14T02:20:33.252Z,11.50
2019-05-14T02:23:03.936Z,13.63
2019-05-14T02:25:34.473Z,14.07
2019-05-14T02:28:04.959Z,11.53
2019-05-14T02:30:48.110Z,12.87
2019-05-14T02:33:09.231Z,11.13
2019-05-14T02:35:40.064Z,10.37
2019-05-14T02:38:10.581Z,12.27
2019-05-14T02:40:40.963Z,14.50
2019-05-14T02:43:11.596Z,12.37
2019-05-14T02:46:00.466Z,10.87
2019-05-14T02:48:14.788Z,12.07
2019-05-14T02:50:45.489Z,13.93
2019-05-14T02:53:19.505Z,12.47
2019-05-14T02:55:49.740Z,13.33
2019-05-14T02:58:21.190Z,15.90
2019-05-14T03:00:51.950Z,12.47
2019-05-14T03:03:22.598Z,11.93
2019-05-14T03:06:04.947Z,14.67
2019-05-14T03:08:38.839Z,14.07
2019-05-14T03:11:09.427Z,12.63
2019-05-14T03:13:40.381Z,12.53
2019-05-14T03:16:25.967Z,16.53
2019-05-14T03:18:44.614Z,13.30
2019-05-14T03:21:15.164Z,14.17
2019-05-14T03:23:45.664Z,10.87
2019-05-14T03:26:19.591Z,13.83
2019-05-14T03:28:49.584Z,15.70
2019-05-14T03:31:22.519Z,12.50
2019-05-14T03:33:53.479Z,11.93
2019-05-14T03:36:27.111Z,14.73
2019-05-14T03:38:59.192Z,13.80
2019-05-14T03:41:30.590Z,14.43
2019-05-14T03:44:01.035Z,12.23
2019-05-14T03:46:45.827Z,12.73
2019-05-14T03:49:03.904Z,14.40
2019-05-14T03:51:34.641Z,11.43
2019-05-14T03:54:07.881Z,15.23
2019-05-14T03:56:39.497Z,15.80
2019-05-14T03:59:10.557Z,10.90
2019-05-14T04:01:41.252Z,13.87
2019-05-14T04:04:12.379Z,14.63
2019-05-14T04:06:44.063Z,14.10
2019-05-14T04:09:15.747Z,13.03
2019-05-14T04:11:50.122Z,16.60
2019-05-14T04:14:23.818Z,16.33
2019-05-14T04:17:05.248Z,13.57
2019-05-14T04:19:29.852Z,11.60
2019-05-14T04:22:05.460Z,19.70
2019-05-14T04:24:41.538Z,14.80
2019-05-14T04:27:14.632Z,14.07
2019-05-14T04:29:49.596Z,17.10
2019-05-14T04:32:21.092Z,18.47
2019-05-14T04:34:51.791Z,13.67
2019-05-14T04:37:22.806Z,13.13
2019-05-14T04:39:53.501Z,16.07
2019-05-14T04:42:24.349Z,16.03
2019-05-14T04:44:55.069Z,14.60
2019-05-14T04:47:32.001Z,14.10
2019-05-14T04:49:59.140Z,13.70
2019-05-14T04:52:30.255Z,14.00
2019-05-14T04:55:00.980Z,15.60
2019-05-14T04:57:31.823Z,12.97
2019-05-14T05:00:02.510Z,14.27
2019-05-14T05:02:33.077Z,16.03
2019-05-14T05:05:03.930Z,11.50
2019-05-14T05:07:34.598Z,13.27
2019-05-14T05:10:05.671Z,15.43
2019-05-14T05:12:38.733Z,14.73
2019-05-14T05:15:10.918Z,17.17
2019-05-14T05:17:47.987Z,13.23
2019-05-14T05:20:14.206Z,14.37
2019-05-14T05:22:45.443Z,14.60
2019-05-14T05:25:16.148Z,10.43
2019-05-14T05:27:48.726Z,11.17
2019-05-14T05:30:20.439Z,12.60
2019-05-14T05:32:51.719Z,16.17
2019-05-14T05:35:22.444Z,17.07
2019-05-14T05:37:53.073Z,12.23
2019-05-14T05:40:23.609Z,11.27
2019-05-14T05:42:54.160Z,12.13
2019-05-14T05:45:24.740Z,10.47
2019-05-14T05:47:59.030Z,10.97
2019-05-14T05:50:28.750Z,12.87
2019-05-14T05:52:59.510Z,8.73
2019-05-14T05:55:30.108Z,9.63
2019-05-14T05:58:00.773Z,8.23
2019-05-14T06:00:39.539Z,8.80
2019-05-14T06:03:10.897Z,9.63
2019-05-14T06:05:41.460Z,7.00
2019-05-14T06:08:12.227Z,8.23
2019-05-14T06:10:42.959Z,6.23
2019-05-14T06:13:14.185Z,8.80
2019-05-14T06:15:48.715Z,7.63
2019-05-14T06:18:19.444Z,6.60
2019-05-14T06:20:49.603Z,8.23
2019-05-14T06:23:20.348Z,6.10
2019-05-14T06:25:50.991Z,9.03
2019-05-14T06:28:21.673Z,8.00
2019-05-14T06:30:52.307Z,8.90
2019-05-14T06:33:22.929Z,6.80
2019-05-14T06:35:53.489Z,7.90
2019-05-14T06:38:24.082Z,6.40
2019-05-14T06:40:54.879Z,7.20
2019-05-14T06:43:25.476Z,5.37
2019-05-14T06:45:58.544Z,7.37
2019-05-14T06:48:34.501Z,6.63
2019-05-14T06:51:02.007Z,6.40
2019-05-14T06:53:33.042Z,5.93
2019-05-14T06:56:03.771Z,6.43
2019-05-14T06:58:34.333Z,6.20
2019-05-14T07:01:04.887Z,5.03
2019-05-14T07:03:35.509Z,5.67
2019-05-14T07:06:06.161Z,4.63
2019-05-14T07:08:39.287Z,5.47
2019-05-14T07:11:09.358Z,5.40
2019-05-14T07:13:39.922Z,7.43
2019-05-14T07:16:10.580Z,6.97
2019-05-14T07:18:49.311Z,5.23
2019-05-14T07:21:13.655Z,5.90
2019-05-14T07:23:44.547Z,4.80
2019-05-14T07:26:14.961Z,4.17
2019-05-14T07:28:45.641Z,3.50
2019-05-14T07:31:18.506Z,4.97
2019-05-14T07:33:49.453Z,4.80
2019-05-14T07:36:20.271Z,3.17
2019-05-14T07:38:50.925Z,4.50
2019-05-14T07:41:21.567Z,3.63
2019-05-14T07:43:52.280Z,5.00
2019-05-14T07:46:22.945Z,4.07
2019-05-14T07:49:04.328Z,5.60
2019-05-14T07:51:28.073Z,5.73
2019-05-14T07:53:58.199Z,4.70
2019-05-14T07:56:29.431Z,4.90
2019-05-14T07:59:02.367Z,5.10
2019-05-14T08:01:32.715Z,3.37
2019-05-14T08:04:03.410Z,2.70
2019-05-14T08:06:34.091Z,2.67
2019-05-14T08:09:08.714Z,2.40
2019-05-14T08:11:39.428Z,3.10
2019-05-14T08:14:10.063Z,2.97
2019-05-14T08:16:40.759Z,3.17
2019-05-14T08:19:24.140Z,3.27
2019-05-14T08:21:43.872Z,3.20
2019-05-14T08:24:15.295Z,7.07
2019-05-14T08:26:48.565Z,7.13
2019-05-14T08:29:18.981Z,8.97
2019-05-14T08:31:49.779Z,12.57
2019-05-14T08:34:20.298Z,14.10
2019-05-14T08:36:51.136Z,13.57
2019-05-14T08:39:21.869Z,9.80
2019-05-14T08:41:59.458Z,7.40
2019-05-14T08:44:24.888Z,7.07
2019-05-14T08:46:55.574Z,4.37
2019-05-14T08:49:38.906Z,2.77
2019-05-14T08:51:59.561Z,2.23
2019-05-14T08:54:30.378Z,2.87
2019-05-14T08:57:00.994Z,4.53
2019-05-14T08:59:32.666Z,3.80
2019-05-14T09:02:06.644Z,4.10
2019-05-14T09:04:41.887Z,5.63
2019-05-14T09:07:09.552Z,3.77
2019-05-14T09:09:40.492Z,5.77
2019-05-14T09:12:13.984Z,4.43
2019-05-14T09:14:44.618Z,4.83
2019-05-14T09:17:18.326Z,5.47
2019-05-14T09:20:00.939Z,5.87
2019-05-14T09:22:20.389Z,10.37
2019-05-14T09:24:51.135Z,11.43
2019-05-14T09:27:22.258Z,11.97
2019-05-14T09:29:52.726Z,11.77
2019-05-14T09:32:24.374Z,7.87
2019-05-14T09:34:55.208Z,3.47
2019-05-14T09:37:28.720Z,5.07
2019-05-14T09:39:58.568Z,4.27
2019-05-14T09:42:29.240Z,5.40
2019-05-14T09:44:59.982Z,5.40
2019-05-14T09:47:30.837Z,10.43
2019-05-14T09:50:14.125Z,6.27
2019-05-14T09:52:33.939Z,4.33
2019-05-14T09:55:04.746Z,16.57
2019-05-14T09:57:35.693Z,6.57
2019-05-14T10:00:09.151Z,6.50
2019-05-14T10:02:41.280Z,5.60
2019-05-14T10:05:12.338Z,6.33
2019-05-14T10:07:43.058Z,8.60
2019-05-14T10:10:13.643Z,6.17
2019-05-14T10:12:52.919Z,9.27
2019-05-14T10:15:16.645Z,10.47
2019-05-14T10:17:50.056Z,7.13
2019-05-14T10:20:36.638Z,11.53
2019-05-14T10:22:54.391Z,8.17
2019-05-14T10:25:26.050Z,6.47
2019-05-14T10:27:59.078Z,3.57
2019-05-14T10:30:29.998Z,4.73
2019-05-14T10:33:09.019Z,3.70
2019-05-14T10:35:33.463Z,4.27
2019-05-14T10:38:04.203Z,4.13
2019-05-14T10:40:34.844Z,3.73
2019-05-14T10:43:05.622Z,4.83
2019-05-14T10:45:38.478Z,4.70
2019-05-14T10:48:09.885Z,5.23
2019-05-14T10:50:56.273Z,5.13
2019-05-14T10:53:13.940Z,5.77
2019-05-14T10:55:44.609Z,5.27
2019-05-14T10:58:15.238Z,6.90
2019-05-14T11:00:45.850Z,6.93
2019-05-14T11:03:18.640Z,6.67
2019-05-14T11:05:48.933Z,3.93
2019-05-14T11:08:19.739Z,4.40
2019-05-14T11:10:51.619Z,9.27
2019-05-14T11:13:22.249Z,7.37
2019-05-14T11:15:52.851Z,6.10
2019-05-14T11:18:23.620Z,7.70
2019-05-14T11:20:54.162Z,7.93
2019-05-14T11:23:24.793Z,11.83
2019-05-14T11:25:55.466Z,10.90
2019-05-14T11:28:28.327Z,15.47
2019-05-14T11:30:58.340Z,8.90
2019-05-14T11:33:29.993Z,24.47
2019-05-14T11:36:01.655Z,11.67
2019-05-14T11:38:37.224Z,11.43
2019-05-14T11:41:04.643Z,7.17
2019-05-14T11:43:35.364Z,6.30
2019-05-14T11:46:08.421Z,6.93
2019-05-14T11:48:39.827Z,5.97
2019-05-14T11:51:10.467Z,6.87
2019-05-14T11:53:41.108Z,11.43
2019-05-14T11:56:11.730Z,5.53
2019-05-14T11:58:43.461Z,8.50
2019-05-14T12:01:14.222Z,6.97
2019-05-14T12:03:44.704Z,11.17
2019-05-14T12:06:15.497Z,7.37
2019-05-14T12:08:46.363Z,7.13
2019-05-14T12:11:19.375Z,9.83
2019-05-14T12:13:49.371Z,7.67
2019-05-14T12:16:19.995Z,6.23
2019-05-14T12:18:50.685Z,6.50
2019-05-14T12:21:21.310Z,6.83
2019-05-14T12:23:51.955Z,4.80
2019-05-14T12:26:22.551Z,6.33
2019-05-14T12:28:56.097Z,5.20
2019-05-14T12:31:25.615Z,5.07
2019-05-14T12:33:58.368Z,8.33
2019-05-14T12:36:29.409Z,8.47
2019-05-14T12:39:01.233Z,7.60
2019-05-14T12:41:32.828Z,9.30
2019-05-14T12:44:03.810Z,6.67
2019-05-14T12:46:34.572Z,5.67
2019-05-14T12:49:05.504Z,6.40
2019-05-14T12:51:39.311Z,5.37
2019-05-14T12:54:09.351Z,5.63
2019-05-14T12:56:40.143Z,4.80
2019-05-14T12:59:11.536Z,4.53
2019-05-14T13:01:42.015Z,4.33
2019-05-14T13:04:12.695Z,6.27
2019-05-14T13:06:43.442Z,5.00
2019-05-14T13:09:21.011Z,5.23
2019-05-14T13:11:49.769Z,6.13
2019-05-14T13:14:20.556Z,6.90
2019-05-14T13:16:54.444Z,6.43
2019-05-14T13:19:23.491Z,6.23
2019-05-14T13:22:10.021Z,7.57
2019-05-14T13:24:28.780Z,5.63
2019-05-14T13:26:59.026Z,6.20
2019-05-14T13:29:29.871Z,9.57
2019-05-14T13:32:00.592Z,6.60
2019-05-14T13:34:31.433Z,10.47
2019-05-14T13:37:02.071Z,10.23
2019-05-14T13:39:33.007Z,10.23
2019-05-14T13:42:03.848Z,15.40
2019-05-14T13:44:34.603Z,10.30
2019-05-14T13:47:05.704Z,9.53
2019-05-14T13:49:39.085Z,6.87
2019-05-14T13:52:09.490Z,10.13
2019-05-14T13:54:40.319Z,9.70
2019-05-14T13:57:12.199Z,14.10
2019-05-14T13:59:44.800Z,12.03
2019-05-14T14:02:15.593Z,9.70
2019-05-14T14:04:48.282Z,7.77
2019-05-14T14:07:20.044Z,10.47
2019-05-14T14:09:50.943Z,18.37
2019-05-14T14:12:25.035Z,9.33
2019-05-14T14:14:53.836Z,10.93
2019-05-14T14:17:24.373Z,11.30
2019-05-14T14:19:55.219Z,8.13
2019-05-14T14:22:25.770Z,9.47
2019-05-14T14:24:59.096Z,11.87
2019-05-14T14:27:29.931Z,12.50
2019-05-14T14:30:01.121Z,10.97
2019-05-14T14:32:32.171Z,12.87
2019-05-14T14:35:02.929Z,7.53
2019-05-14T14:37:33.506Z,9.30
2019-05-14T14:40:04.547Z,13.53
2019-05-14T14:42:36.005Z,10.97
2019-05-14T14:45:08.638Z,13.13
2019-05-14T14:47:40.029Z,19.03
2019-05-14T14:50:12.361Z,11.40
2019-05-14T14:52:43.007Z,13.77
2019-05-14T14:55:14.903Z,13.00
2019-05-14T14:57:46.311Z,11.03
2019-05-14T15:00:19.571Z,11.53
2019-05-14T15:02:50.328Z,15.93
2019-05-14T15:05:21.124Z,11.67
2019-05-14T15:07:51.713Z,13.03
2019-05-14T15:10:22.329Z,19.70
2019-05-14T15:12:52.895Z,12.77
2019-05-14T15:15:23.477Z,17.90
2019-05-14T15:17:53.963Z,10.63
2019-05-14T15:20:24.808Z,11.50
2019-05-14T15:22:55.483Z,8.77
2019-05-14T15:25:26.263Z,10.37
2019-05-14T15:27:58.394Z,10.10
2019-05-14T15:30:29.150Z,10.57
2019-05-14T15:32:59.945Z,10.10
2019-05-14T15:35:30.654Z,12.83
2019-05-14T15:38:01.272Z,16.13
2019-05-14T15:40:32.075Z,12.03
2019-05-14T15:43:02.984Z,12.70
2019-05-14T15:45:34.024Z,10.60
2019-05-14T15:48:04.513Z,14.50
2019-05-14T15:50:38.604Z,18.10
2019-05-14T15:53:10.818Z,17.97
2019-05-14T15:55:40.181Z,18.13
2019-05-14T15:58:10.715Z,16.97
2019-05-14T16:00:41.801Z,13.57
2019-05-14T16:03:12.721Z,14.93
2019-05-14T16:05:43.401Z,12.83
2019-05-14T16:08:14.089Z,19.37
2019-05-14T16:10:44.968Z,16.27
2019-05-14T16:13:15.841Z,16.97
2019-05-14T16:15:48.400Z,17.03
2019-05-14T16:18:22.042Z,14.80
2019-05-14T16:20:51.326Z,20.63
2019-05-14T16:23:22.283Z,16.30
2019-05-14T16:25:52.948Z,15.13
2019-05-14T16:28:25.045Z,16.83
2019-05-14T16:30:55.891Z,18.27
2019-05-14T16:33:29.008Z,19.37
2019-05-14T16:35:58.828Z,17.90
2019-05-14T16:38:29.364Z,23.97
2019-05-14T16:41:00.131Z,18.67
2019-05-14T16:43:32.400Z,20.40
2019-05-14T16:46:03.567Z,24.60
2019-05-14T16:48:34.198Z,23.83
2019-05-14T16:51:05.152Z,27.93
2019-05-14T16:53:37.865Z,23.00
2019-05-14T16:56:08.449Z,22.00
2019-05-14T16:58:39.153Z,21.47
2019-05-14T17:01:10.105Z,22.60
2019-05-14T17:03:42.199Z,25.27
2019-05-14T17:06:13.013Z,23.40
2019-05-14T17:08:43.948Z,23.70
2019-05-14T17:11:14.692Z,23.00
2019-05-14T17:13:45.197Z,22.43
2019-05-14T17:16:15.809Z,22.90
2019-05-14T17:18:48.634Z,25.97
2019-05-14T17:21:20.336Z,27.03
2019-05-14T17:23:51.120Z,29.83
2019-05-14T17:26:21.753Z,31.37
2019-05-14T17:28:52.569Z,23.30
2019-05-14T17:31:23.222Z,23.47
2019-05-14T17:33:54.274Z,28.60
2019-05-14T17:36:25.091Z,25.23
2019-05-14T17:38:55.805Z,23.03
2019-05-14T17:41:26.460Z,23.27
2019-05-14T17:43:58.622Z,26.30
2019-05-14T17:46:29.370Z,35.50
2019-05-14T17:49:00.480Z,27.03
2019-05-14T17:51:31.598Z,34.37
2019-05-14T17:54:02.786Z,35.43
2019-05-14T17:56:33.631Z,32.93
2019-05-14T17:59:04.505Z,26.70
2019-05-14T18:01:35.799Z,29.57
2019-05-14T18:04:08.908Z,23.97
2019-05-14T18:06:38.661Z,25.07
2019-05-14T18:09:09.566Z,28.07
2019-05-14T18:11:41.000Z,27.97
2019-05-14T18:14:12.122Z,30.13
2019-05-14T18:16:42.965Z,29.57
2019-05-14T18:19:14.088Z,28.83
2019-05-14T18:21:48.420Z,25.70
2019-05-14T18:24:18.935Z,26.10
2019-05-14T18:26:51.449Z,27.47
2019-05-14T18:29:22.326Z,26.30
2019-05-14T18:31:54.594Z,27.27
2019-05-14T18:34:25.281Z,30.47
2019-05-14T18:36:55.878Z,31.10
2019-05-14T18:39:28.338Z,32.00
2019-05-14T18:42:00.559Z,33.37
2019-05-14T18:44:32.021Z,34.83
2019-05-14T18:47:05.538Z,39.23
2019-05-14T18:49:36.550Z,40.97
2019-05-14T18:52:08.868Z,35.47
2019-05-14T18:54:40.270Z,34.80
2019-05-14T18:57:12.255Z,44.03
2019-05-14T18:59:43.277Z,41.00
2019-05-14T19:02:14.216Z,37.07
2019-05-14T19:04:45.158Z,34.13
2019-05-14T19:07:18.686Z,37.57
2019-05-14T19:09:50.173Z,32.33
2019-05-14T19:12:21.250Z,34.90
2019-05-14T19:14:52.126Z,31.10
2019-05-14T19:17:23.329Z,42.50
2019-05-14T19:19:55.802Z,36.07
2019-05-14T19:22:28.594Z,34.30
2019-05-14T19:24:58.881Z,35.40
2019-05-14T19:27:29.710Z,31.70
2019-05-14T19:30:03.180Z,37.50
2019-05-14T19:32:33.762Z,31.30
2019-05-14T19:35:05.485Z,36.13
2019-05-14T19:37:38.787Z,31.57
2019-05-14T19:40:10.903Z,29.17
2019-05-14T19:42:42.033Z,30.03
2019-05-14T19:45:13.997Z,30.93
2019-05-14T19:47:44.804Z,34.10
2019-05-14T19:50:15.898Z,36.03
2019-05-14T19:52:48.828Z,36.27
2019-05-14T19:55:20.308Z,29.20
2019-05-14T19:57:53.736Z,31.67
2019-05-14T20:00:28.854Z,31.43
2019-05-14T20:02:59.168Z,37.50
2019-05-14T20:05:31.450Z,26.57
2019-05-14T20:08:04.206Z,32.93
2019-05-14T20:10:35.282Z,27.20
2019-05-14T20:13:05.827Z,25.57
2019-05-14T20:15:38.892Z,31.23
2019-05-14T20:18:09.562Z,32.20
2019-05-14T20:20:40.271Z,31.60
2019-05-14T20:23:12.296Z,32.20
2019-05-14T20:25:42.903Z,34.67
2019-05-14T20:28:13.561Z,32.53
2019-05-14T20:30:44.501Z,40.80
2019-05-14T20:33:15.462Z,30.80
2019-05-14T20:35:47.926Z,29.17
2019-05-14T20:38:18.682Z,29.23
2019-05-14T20:40:49.391Z,33.60
2019-05-14T20:43:20.015Z,34.07
2019-05-14T20:45:50.539Z,32.97
2019-05-14T20:48:21.274Z,30.00
2019-05-14T20:50:52.009Z,31.50
2019-05-14T20:53:22.331Z,40.55
2019-05-14T20:55:52.792Z,40.77
2019-05-14T20:58:23.294Z,36.70
2019-05-14T21:00:53.710Z,36.13
2019-05-14T21:03:25.880Z,30.40
2019-05-14T21:05:58.212Z,33.57
2019-05-14T21:08:28.725Z,33.93
2019-05-14T21:10:59.312Z,31.20
2019-05-14T21:13:29.920Z,35.17
2019-05-14T21:16:00.435Z,33.23
2019-05-14T21:18:35.231Z,36.33
2019-05-14T21:21:03.101Z,39.20
2019-05-14T21:23:33.608Z,55.60
2019-05-14T21:26:04.121Z,32.87
2019-05-14T21:28:34.780Z,35.07
2019-05-14T21:31:05.272Z,40.50
2019-05-14T21:33:35.759Z,35.23
2019-05-14T21:36:06.529Z,30.97
2019-05-14T21:38:37.901Z,37.27
2019-05-14T21:41:09.149Z,35.13
2019-05-14T21:43:39.684Z,39.00
2019-05-14T21:46:10.201Z,43.27
2019-05-14T21:48:40.660Z,39.13
2019-05-14T21:51:11.248Z,44.33
2019-05-14T21:53:41.796Z,38.77
2019-05-14T21:56:12.697Z,43.23
2019-05-14T21:58:43.109Z,39.90
2019-05-14T22:01:33.536Z,52.53
2019-05-14T22:04:04.463Z,48.93
2019-05-14T22:06:35.010Z,46.83
2019-05-14T22:09:08.741Z,45.07
2019-05-14T22:11:39.548Z,41.27
2019-05-14T22:14:10.386Z,37.33
2019-05-14T22:16:40.933Z,38.47
2019-05-14T22:19:11.649Z,50.13
2019-05-14T22:21:42.286Z,46.77
2019-05-14T22:24:12.876Z,40.33
2019-05-14T22:26:43.510Z,38.87
2019-05-14T22:29:14.017Z,43.40
2019-05-14T22:31:44.608Z,51.83
2019-05-14T22:34:15.088Z,37.27
2019-05-14T22:36:45.556Z,38.10
2019-05-14T22:39:19.797Z,43.97
2019-05-14T22:41:48.176Z,46.60
2019-05-14T22:44:18.736Z,40.47
2019-05-14T22:46:49.314Z,47.17
2019-05-14T22:49:19.916Z,39.17
2019-05-14T22:51:50.473Z,47.63
2019-05-14T22:54:21.106Z,32.33
2019-05-14T22:56:51.633Z,41.47
2019-05-14T22:59:22.102Z,39.33
2019-05-14T23:01:52.578Z,39.00
2019-05-14T23:04:23.076Z,42.03
2019-05-14T23:06:54.067Z,41.47
2019-05-14T23:09:24.554Z,40.47
2019-05-14T23:11:55.084Z,40.23
2019-05-14T23:14:28.077Z,41.67
2019-05-14T23:16:57.895Z,40.17
2019-05-14T23:19:28.558Z,42.43
2019-05-14T23:21:59.199Z,46.67
2019-05-14T23:24:29.810Z,43.10
2019-05-14T23:27:00.347Z,39.33
2019-05-14T23:29:30.876Z,44.80
2019-05-14T23:32:01.376Z,38.37
2019-05-14T23:34:31.819Z,35.83
2019-05-14T23:37:02.566Z,42.00
2019-05-14T23:39:33.061Z,40.03
2019-05-14T23:42:04.228Z,40.30
2019-05-14T23:44:34.652Z,37.50
2019-05-14T23:47:05.122Z,37.23
2019-05-14T23:49:35.566Z,37.13
2019-05-14T23:52:06.025Z,35.40
2019-05-14T23:54:38.105Z,38.20
2019-05-14T23:57:08.963Z,34.27
2019-05-14T23:59:39.782Z,46.37
